createdAt,value
2018-07-20T00:00:08.512Z,6.27
2018-07-20T00:02:36.532Z,6.33
2018-07-20T00:05:05.344Z,6.63
2018-07-20T00:07:33.373Z,6.50
2018-07-20T00:10:01.398Z,7.57
2018-07-20T00:12:29.400Z,5.93
2018-07-20T00:14:57.449Z,6.23
2018-07-20T00:17:25.457Z,6.97
2018-07-20T00:19:53.710Z,6.73
2018-07-20T00:22:21.945Z,7.20
2018-07-20T00:24:49.967Z,6.63
2018-07-20T00:27:17.989Z,6.93
2018-07-20T00:29:46.050Z,7.33
2018-07-20T00:32:14.093Z,6.87
2018-07-20T00:34:42.109Z,7.50
2018-07-20T00:37:10.221Z,7.27
2018-07-20T00:39:38.296Z,8.03
2018-07-20T00:42:06.312Z,7.30
2018-07-20T00:44:34.435Z,8.13
2018-07-20T00:47:02.479Z,7.77
2018-07-20T00:49:30.488Z,7.83
2018-07-20T00:51:58.512Z,7.17
2018-07-20T00:54:26.529Z,7.53
2018-07-20T00:56:54.570Z,7.33
2018-07-20T00:59:22.608Z,7.83
2018-07-20T01:01:50.612Z,6.93
2018-07-20T01:04:19.021Z,7.37
2018-07-20T01:06:47.185Z,8.73
2018-07-20T01:09:15.234Z,10.13
2018-07-20T01:11:43.526Z,7.40
2018-07-20T01:14:11.557Z,7.83
2018-07-20T01:16:39.822Z,7.20
2018-07-20T01:19:07.627Z,9.03
2018-07-20T01:21:35.644Z,9.03
2018-07-20T01:24:03.847Z,10.33
2018-07-20T01:26:31.913Z,8.53
2018-07-20T01:29:00.202Z,8.47
2018-07-20T01:31:28.217Z,8.43
2018-07-20T01:33:56.284Z,7.97
2018-07-20T01:36:24.304Z,9.73
2018-07-20T01:38:52.338Z,9.13
2018-07-20T01:41:20.357Z,9.00
2018-07-20T01:43:48.443Z,9.20
2018-07-20T01:46:16.573Z,8.58
2018-07-20T01:48:44.890Z,9.13
2018-07-20T01:51:12.977Z,9.20
2018-07-20T01:53:41.006Z,8.40
2018-07-20T01:56:09.264Z,8.00
2018-07-20T01:58:37.284Z,8.77
2018-07-20T02:01:05.304Z,8.53
2018-07-20T02:03:33.338Z,8.40
2018-07-20T02:06:01.545Z,7.63
2018-07-20T02:08:29.569Z,9.20
2018-07-20T02:10:59.459Z,9.60
2018-07-20T02:13:27.633Z,8.30
2018-07-20T02:15:56.005Z,9.03
2018-07-20T02:18:24.182Z,8.50
2018-07-20T02:21:08.797Z,8.63
2018-07-20T02:23:36.833Z,8.77
2018-07-20T02:26:05.294Z,9.65
2018-07-20T02:28:33.352Z,9.17
2018-07-20T02:31:01.375Z,9.03
2018-07-20T02:33:29.404Z,8.90
2018-07-20T02:35:57.428Z,9.67
2018-07-20T02:38:25.525Z,9.43
2018-07-20T02:40:53.561Z,9.83
2018-07-20T02:43:21.608Z,9.23
2018-07-20T02:45:49.712Z,8.90
2018-07-20T02:48:17.835Z,9.30
2018-07-20T02:50:45.863Z,10.27
2018-07-20T02:53:13.909Z,10.63
2018-07-20T02:55:41.915Z,8.90
2018-07-20T02:58:09.941Z,10.50
2018-07-20T03:00:38.009Z,10.60
2018-07-20T03:03:06.378Z,10.07
2018-07-20T03:05:34.409Z,9.23
2018-07-20T03:08:02.451Z,8.67
2018-07-20T03:10:30.686Z,10.00
2018-07-20T03:12:58.847Z,10.27
2018-07-20T03:15:27.041Z,10.83
2018-07-20T03:17:55.068Z,9.43
2018-07-20T03:20:23.102Z,10.38
2018-07-20T03:22:51.155Z,11.20
2018-07-20T03:25:19.182Z,10.70
2018-07-20T03:27:47.209Z,11.20
2018-07-20T03:30:15.336Z,10.73
2018-07-20T03:32:43.420Z,11.23
2018-07-20T03:35:11.406Z,9.60
2018-07-20T03:37:39.428Z,9.93
2018-07-20T03:40:07.464Z,10.60
2018-07-20T03:42:35.515Z,9.33
2018-07-20T03:45:03.657Z,8.90
2018-07-20T03:47:31.686Z,10.30
2018-07-20T03:49:59.737Z,11.37
2018-07-20T03:52:27.792Z,10.30
2018-07-20T03:54:55.828Z,10.40
2018-07-20T03:57:23.868Z,9.37
2018-07-20T03:59:51.885Z,10.70
2018-07-20T04:02:19.939Z,10.07
2018-07-20T04:04:48.029Z,10.67
2018-07-20T04:07:16.081Z,13.25
2018-07-20T04:09:44.131Z,11.53
2018-07-20T04:12:12.305Z,11.97
2018-07-20T04:14:40.342Z,11.07
2018-07-20T04:17:08.847Z,11.37
2018-07-20T04:19:36.876Z,11.23
2018-07-20T04:22:05.012Z,12.07
2018-07-20T04:24:33.044Z,10.97
2018-07-20T04:27:01.072Z,10.43
2018-07-20T04:29:29.198Z,10.10
2018-07-20T04:31:57.287Z,10.07
2018-07-20T04:34:25.319Z,11.53
2018-07-20T04:36:53.888Z,10.13
2018-07-20T04:39:21.920Z,11.10
2018-07-20T04:41:49.980Z,11.00
2018-07-20T04:44:18.226Z,13.05
2018-07-20T04:46:46.253Z,12.20
2018-07-20T04:49:14.348Z,11.28
2018-07-20T04:51:42.720Z,10.80
2018-07-20T04:54:10.773Z,12.53
2018-07-20T04:56:39.056Z,12.33
2018-07-20T04:59:07.092Z,12.20
2018-07-20T05:01:35.131Z,10.87
2018-07-20T05:04:03.275Z,12.77
2018-07-20T05:06:31.333Z,11.93
2018-07-20T05:08:59.373Z,11.63
2018-07-20T05:11:27.629Z,10.60
2018-07-20T05:13:55.661Z,9.93
2018-07-20T05:16:23.752Z,13.07
2018-07-20T05:18:51.801Z,11.30
2018-07-20T05:21:19.840Z,12.50
2018-07-20T05:23:47.880Z,11.43
2018-07-20T05:26:15.913Z,11.07
2018-07-20T05:28:44.108Z,12.27
2018-07-20T05:31:12.209Z,11.43
2018-07-20T05:33:40.226Z,12.73
2018-07-20T05:36:08.354Z,12.47
2018-07-20T05:38:36.402Z,13.07
2018-07-20T05:41:04.951Z,11.93
2018-07-20T05:43:32.996Z,12.33
2018-07-20T05:46:01.043Z,13.70
2018-07-20T05:48:29.092Z,11.77
2018-07-20T05:50:57.225Z,13.93
2018-07-20T05:53:25.312Z,11.47
2018-07-20T05:55:53.377Z,12.80
2018-07-20T05:58:21.439Z,13.10
2018-07-20T06:00:49.688Z,13.60
2018-07-20T06:03:17.733Z,12.60
2018-07-20T06:05:45.774Z,13.73
2018-07-20T06:08:13.829Z,12.47
2018-07-20T06:10:41.889Z,12.97
2018-07-20T06:13:09.963Z,13.40
2018-07-20T06:15:38.000Z,12.93
2018-07-20T06:18:06.749Z,13.13
2018-07-20T06:20:34.780Z,12.95
2018-07-20T06:23:02.823Z,13.13
2018-07-20T06:25:30.854Z,13.53
2018-07-20T06:27:58.888Z,12.57
2018-07-20T06:30:26.916Z,11.80
2018-07-20T06:32:54.977Z,12.37
2018-07-20T06:35:23.016Z,13.17
2018-07-20T06:37:51.054Z,12.57
2018-07-20T06:40:19.692Z,12.37
2018-07-20T06:42:47.724Z,12.70
2018-07-20T06:45:15.845Z,12.90
2018-07-20T06:47:44.095Z,12.97
2018-07-20T06:50:17.073Z,12.23
2018-07-20T06:52:46.133Z,11.60
2018-07-20T06:55:14.285Z,12.13
2018-07-20T06:57:42.700Z,12.33
2018-07-20T07:00:11.038Z,12.90
2018-07-20T07:02:39.233Z,12.37
2018-07-20T07:05:08.576Z,9.73
2018-07-20T07:07:36.796Z,11.37
2018-07-20T07:10:05.452Z,13.00
2018-07-20T07:12:33.538Z,12.40
2018-07-20T07:15:01.633Z,10.73
2018-07-20T07:17:29.625Z,10.57
2018-07-20T07:19:57.748Z,9.80
2018-07-20T07:22:25.784Z,12.90
2018-07-20T07:24:54.064Z,11.77
2018-07-20T07:27:22.277Z,12.13
2018-07-20T07:29:50.305Z,11.20
2018-07-20T07:32:18.629Z,10.83
2018-07-20T07:34:46.674Z,11.17
2018-07-20T07:37:14.840Z,11.10
2018-07-20T07:39:42.900Z,10.27
2018-07-20T07:42:10.982Z,12.60
2018-07-20T07:44:38.998Z,10.80
2018-07-20T07:47:07.037Z,11.17
2018-07-20T07:49:35.215Z,12.30
2018-07-20T07:52:03.305Z,11.93
2018-07-20T07:54:31.377Z,13.10
2018-07-20T07:56:59.422Z,13.23
2018-07-20T07:59:27.588Z,11.23
2018-07-20T08:01:56.180Z,13.43
2018-07-20T08:04:24.261Z,11.37
2018-07-20T08:06:52.333Z,13.10
2018-07-20T08:09:20.409Z,13.33
2018-07-20T08:11:48.509Z,12.43
2018-07-20T08:14:16.553Z,12.60
2018-07-20T08:16:44.785Z,12.70
2018-07-20T08:19:12.832Z,12.13
2018-07-20T08:21:40.882Z,9.27
2018-07-20T08:24:08.933Z,14.13
2018-07-20T08:26:37.251Z,11.07
2018-07-20T08:29:05.508Z,10.53
2018-07-20T08:31:33.548Z,9.63
2018-07-20T08:34:01.577Z,11.07
2018-07-20T08:36:29.609Z,11.30
2018-07-20T08:38:57.628Z,10.33
2018-07-20T08:41:25.659Z,10.33
2018-07-20T08:43:53.702Z,8.10
2018-07-20T08:46:21.766Z,9.93
2018-07-20T08:48:49.845Z,11.77
2018-07-20T08:51:18.077Z,7.97
2018-07-20T08:53:46.093Z,10.90
2018-07-20T08:56:14.146Z,9.73
2018-07-20T08:58:42.189Z,11.13
2018-07-20T09:01:10.672Z,9.93
2018-07-20T09:03:51.729Z,9.23
2018-07-20T09:06:26.110Z,8.73
2018-07-20T09:08:54.129Z,9.17
2018-07-20T09:11:22.165Z,9.27
2018-07-20T09:13:57.872Z,8.07
2018-07-20T09:16:25.837Z,8.60
2018-07-20T09:18:53.869Z,9.03
2018-07-20T09:21:22.593Z,34.63
2018-07-20T09:23:50.606Z,23.23
2018-07-20T09:26:18.648Z,21.63
2018-07-20T09:28:46.704Z,19.57
2018-07-20T09:31:14.749Z,17.15
2018-07-20T09:33:42.780Z,19.70
2018-07-20T09:36:10.816Z,18.87
2018-07-20T09:38:38.901Z,16.60
2018-07-20T09:41:06.929Z,21.13
2018-07-20T09:43:35.229Z,17.17
2018-07-20T09:46:03.280Z,16.57
2018-07-20T09:48:31.299Z,13.13
2018-07-20T09:50:59.336Z,11.83
2018-07-20T09:53:27.377Z,11.13
2018-07-20T09:55:55.410Z,14.37
2018-07-20T09:58:23.496Z,12.90
2018-07-20T10:00:52.401Z,11.53
2018-07-20T10:03:21.497Z,11.57
2018-07-20T10:05:49.594Z,11.13
2018-07-20T10:08:18.838Z,9.40
2018-07-20T10:10:47.116Z,8.87
2018-07-20T10:13:15.173Z,9.00
2018-07-20T10:15:43.250Z,11.03
2018-07-20T10:18:11.283Z,11.97
2018-07-20T10:20:39.337Z,9.37
2018-07-20T10:23:07.355Z,8.40
2018-07-20T10:25:35.576Z,8.90
2018-07-20T10:28:03.666Z,9.17
2018-07-20T10:30:31.902Z,8.53
2018-07-20T10:33:00.015Z,9.13
2018-07-20T10:35:28.056Z,8.63
2018-07-20T10:37:56.116Z,9.03
2018-07-20T10:40:27.160Z,9.43
2018-07-20T10:42:56.789Z,8.03
2018-07-20T10:45:25.133Z,8.70
2018-07-20T10:47:53.162Z,10.10
2018-07-20T10:50:21.190Z,9.40
2018-07-20T10:52:49.516Z,8.80
2018-07-20T10:55:18.015Z,8.23
2018-07-20T10:57:46.661Z,9.00
2018-07-20T11:00:14.961Z,8.35
2018-07-20T11:02:42.981Z,9.03
2018-07-20T11:05:11.126Z,11.00
2018-07-20T11:07:39.165Z,10.57
2018-07-20T11:10:07.202Z,9.20
2018-07-20T11:12:35.550Z,10.23
2018-07-20T11:15:05.374Z,11.03
2018-07-20T11:17:33.497Z,10.63
2018-07-20T11:20:01.540Z,10.63
2018-07-20T11:22:29.560Z,9.60
2018-07-20T11:24:57.607Z,8.97
2018-07-20T11:27:26.188Z,9.00
2018-07-20T11:29:54.204Z,8.37
2018-07-20T11:32:22.277Z,8.65
2018-07-20T11:34:50.320Z,8.80
2018-07-20T11:37:18.461Z,8.97
2018-07-20T11:39:46.493Z,9.30
2018-07-20T11:42:14.543Z,9.40
2018-07-20T11:44:42.580Z,8.47
2018-07-20T11:47:10.593Z,8.48
2018-07-20T11:49:38.675Z,6.73
2018-07-20T11:52:07.097Z,8.53
2018-07-20T11:54:35.130Z,7.10
2018-07-20T11:57:03.303Z,8.53
2018-07-20T11:59:31.444Z,7.50
2018-07-20T12:01:59.547Z,7.57
2018-07-20T12:04:27.577Z,8.00
2018-07-20T12:06:55.693Z,9.03
2018-07-20T12:09:23.678Z,7.27
2018-07-20T12:11:51.879Z,7.87
2018-07-20T12:14:19.920Z,8.63
2018-07-20T12:16:47.985Z,7.53
2018-07-20T12:19:16.032Z,8.20
2018-07-20T12:21:44.076Z,9.03
2018-07-20T12:24:12.101Z,7.70
2018-07-20T12:26:40.146Z,8.10
2018-07-20T12:29:08.210Z,7.73
2018-07-20T12:31:36.389Z,7.27
2018-07-20T12:34:05.238Z,7.73
2018-07-20T12:36:33.225Z,5.60
2018-07-20T12:39:01.293Z,6.73
2018-07-20T12:41:29.334Z,7.37
2018-07-20T12:43:57.390Z,8.40
2018-07-20T12:46:25.678Z,7.53
2018-07-20T12:48:53.740Z,8.57
2018-07-20T12:51:21.793Z,9.00
2018-07-20T12:53:49.838Z,8.70
2018-07-20T12:56:17.893Z,7.55
2018-07-20T12:58:46.022Z,6.93
2018-07-20T13:01:14.800Z,6.27
2018-07-20T13:03:42.850Z,7.90
2018-07-20T13:06:10.905Z,6.87
2018-07-20T13:08:39.241Z,7.30
2018-07-20T13:11:07.259Z,6.73
2018-07-20T13:13:35.331Z,7.33
2018-07-20T13:16:05.137Z,7.40
2018-07-20T13:18:33.182Z,7.30
2018-07-20T13:21:01.226Z,6.20
2018-07-20T13:23:29.259Z,6.60
2018-07-20T13:25:57.292Z,6.70
2018-07-20T13:28:25.320Z,8.50
2018-07-20T13:30:53.345Z,6.77
2018-07-20T13:33:21.836Z,6.72
2018-07-20T13:35:49.868Z,7.17
2018-07-20T13:38:17.960Z,6.10
2018-07-20T13:40:46.028Z,6.33
2018-07-20T13:43:14.072Z,6.80
2018-07-20T13:45:42.132Z,6.67
2018-07-20T13:48:10.118Z,7.17
2018-07-20T13:50:38.164Z,6.67
2018-07-20T13:53:06.311Z,6.40
2018-07-20T13:55:34.301Z,6.67
2018-07-20T13:58:02.329Z,6.30
2018-07-20T14:00:30.599Z,6.10
2018-07-20T14:02:58.643Z,6.60
2018-07-20T14:05:26.679Z,6.60
2018-07-20T14:07:54.702Z,5.90
2018-07-20T14:10:22.756Z,5.60
2018-07-20T14:12:50.799Z,15.90
2018-07-20T14:15:19.076Z,6.17
2018-07-20T14:17:53.996Z,5.60
2018-07-20T14:20:22.031Z,5.77
2018-07-20T14:22:50.618Z,5.83
2018-07-20T14:25:18.652Z,4.57
2018-07-20T14:27:46.697Z,5.67
2018-07-20T14:30:14.737Z,5.33
2018-07-20T14:32:42.760Z,5.57
2018-07-20T14:35:10.788Z,5.53
2018-07-20T14:37:39.369Z,5.07
2018-07-20T14:40:07.920Z,4.73
2018-07-20T14:42:35.973Z,5.70
2018-07-20T14:45:04.373Z,6.80
2018-07-20T14:47:32.416Z,6.37
2018-07-20T14:50:00.447Z,6.57
2018-07-20T14:52:28.491Z,4.83
2018-07-20T14:54:56.595Z,5.90
2018-07-20T14:57:24.577Z,6.00
2018-07-20T14:59:52.633Z,5.33
2018-07-20T15:02:20.668Z,5.62
2018-07-20T15:04:48.766Z,6.77
2018-07-20T15:07:16.760Z,6.03
2018-07-20T15:09:44.782Z,5.53
2018-07-20T15:12:12.858Z,5.55
2018-07-20T15:14:40.857Z,5.25
2018-07-20T15:17:09.101Z,5.03
2018-07-20T15:19:37.129Z,5.80
2018-07-20T15:22:05.514Z,5.60
2018-07-20T15:24:33.594Z,5.93
2018-07-20T15:27:01.617Z,6.70
2018-07-20T15:29:29.658Z,5.77
2018-07-20T15:31:57.806Z,6.83
2018-07-20T15:34:25.824Z,7.53
2018-07-20T15:36:53.860Z,6.10
2018-07-20T15:39:22.246Z,5.70
2018-07-20T15:41:50.220Z,6.27
2018-07-20T15:44:18.266Z,6.47
2018-07-20T15:46:46.585Z,6.40
2018-07-20T15:49:14.642Z,5.90
2018-07-20T15:53:34.771Z,6.50
2018-07-20T15:54:10.740Z,6.80
2018-07-20T15:56:38.742Z,6.57
2018-07-20T15:59:06.774Z,6.93
2018-07-20T16:01:35.006Z,6.93
2018-07-20T16:04:03.046Z,7.10
2018-07-20T16:06:31.080Z,6.20
2018-07-20T16:08:59.132Z,7.50
2018-07-20T16:11:27.160Z,6.37
2018-07-20T16:13:55.206Z,7.67
2018-07-20T16:16:23.226Z,7.10
2018-07-20T16:18:51.252Z,6.83
2018-07-20T16:21:19.277Z,7.42
2018-07-20T16:23:47.630Z,7.10
2018-07-20T16:26:15.668Z,6.40
2018-07-20T16:28:43.704Z,6.43
2018-07-20T16:31:11.700Z,6.93
2018-07-20T16:33:39.745Z,6.80
2018-07-20T16:36:07.939Z,7.13
2018-07-20T16:38:36.008Z,7.33
2018-07-20T16:41:04.991Z,7.15
2018-07-20T16:43:33.010Z,6.60
2018-07-20T16:46:01.041Z,7.83
2018-07-20T16:48:29.065Z,7.13
2018-07-20T16:50:57.494Z,8.30
2018-07-20T16:53:25.519Z,7.37
2018-07-20T16:55:53.533Z,6.73
2018-07-20T16:58:21.654Z,7.92
2018-07-20T17:00:49.637Z,7.27
2018-07-20T17:03:17.662Z,7.27
2018-07-20T17:05:45.913Z,7.10
2018-07-20T17:08:14.144Z,6.60
2018-07-20T17:10:42.363Z,6.47
2018-07-20T17:13:10.409Z,7.00
2018-07-20T17:15:38.522Z,7.30
2018-07-20T17:18:06.559Z,7.33
2018-07-20T17:20:34.828Z,7.47
2018-07-20T17:23:03.136Z,6.53
2018-07-20T17:25:31.159Z,7.07
2018-07-20T17:27:59.280Z,6.73
2018-07-20T17:30:27.248Z,7.33
2018-07-20T17:32:55.276Z,6.87
2018-07-20T17:35:23.285Z,6.80
2018-07-20T17:37:51.317Z,6.80
2018-07-20T17:40:19.332Z,6.80
2018-07-20T17:42:47.353Z,6.67
2018-07-20T17:45:15.407Z,6.70
2018-07-20T17:47:43.405Z,6.47
2018-07-20T17:50:11.578Z,7.80
2018-07-20T17:52:39.618Z,8.03
2018-07-20T17:55:07.664Z,8.23
2018-07-20T17:57:35.696Z,6.83
2018-07-20T18:00:03.818Z,7.40
2018-07-20T18:02:31.852Z,7.63
2018-07-20T18:04:59.874Z,7.80
2018-07-20T18:07:27.916Z,7.23
2018-07-20T18:09:55.950Z,7.77
2018-07-20T18:12:23.976Z,10.33
2018-07-20T18:14:52.040Z,8.53
2018-07-20T18:17:20.072Z,8.30
2018-07-20T18:19:48.100Z,7.17
2018-07-20T18:22:16.228Z,11.37
2018-07-20T18:24:44.249Z,7.40
2018-07-20T18:27:13.215Z,8.20
2018-07-20T18:29:41.161Z,7.10
2018-07-20T18:32:09.273Z,7.22
2018-07-20T18:34:37.298Z,7.60
2018-07-20T18:37:05.344Z,5.90
2018-07-20T18:39:33.373Z,8.40
2018-07-20T18:42:01.408Z,6.90
2018-07-20T18:44:29.431Z,6.27
2018-07-20T18:46:57.454Z,6.50
2018-07-20T18:49:25.470Z,7.10
2018-07-20T18:51:53.542Z,7.70
2018-07-20T18:54:21.536Z,8.35
2018-07-20T18:56:49.553Z,7.87
2018-07-20T18:59:17.592Z,7.85
2018-07-20T19:01:45.610Z,7.83
2018-07-20T19:04:13.655Z,10.50
2018-07-20T19:06:41.721Z,7.83
2018-07-20T19:09:10.920Z,7.55
2018-07-20T19:11:39.078Z,7.47
2018-07-20T19:14:07.107Z,9.60
2018-07-20T19:16:35.170Z,6.60
2018-07-20T19:19:03.228Z,7.70
2018-07-20T19:21:31.293Z,7.23
2018-07-20T19:23:59.415Z,7.90
2018-07-20T19:26:27.352Z,8.00
2018-07-20T19:28:55.371Z,7.33
2018-07-20T19:31:23.449Z,7.33
2018-07-20T19:33:52.506Z,6.97
2018-07-20T19:36:20.529Z,6.07
2018-07-20T19:38:48.576Z,7.70
2018-07-20T19:41:16.841Z,9.27
2018-07-20T19:43:44.885Z,6.45
2018-07-20T19:46:12.904Z,8.27
2018-07-20T19:48:40.948Z,7.33
2018-07-20T19:51:09.009Z,7.07
2018-07-20T19:53:37.038Z,6.60
2018-07-20T19:56:05.058Z,6.30
2018-07-20T19:58:33.088Z,6.30
2018-07-20T20:01:13.337Z,7.40
2018-07-20T20:03:48.002Z,7.43
2018-07-20T20:06:30.996Z,7.70
2018-07-20T20:09:00.521Z,7.27
2018-07-20T20:11:28.543Z,7.77
2018-07-20T20:13:56.573Z,7.13
2018-07-20T20:16:24.595Z,6.67
2018-07-20T20:18:52.800Z,6.50
2018-07-20T20:21:20.817Z,11.68
2018-07-20T20:23:49.607Z,8.03
2018-07-20T20:26:17.789Z,7.70
2018-07-20T20:28:52.037Z,8.13
2018-07-20T20:31:20.068Z,8.70
2018-07-20T20:33:48.096Z,7.70
2018-07-20T20:36:16.384Z,8.53
2018-07-20T20:38:44.406Z,7.70
2018-07-20T20:41:12.452Z,7.78
2018-07-20T20:43:40.703Z,7.37
2018-07-20T20:46:08.770Z,13.77
2018-07-20T20:48:37.064Z,10.13
2018-07-20T20:51:05.399Z,7.60
2018-07-20T20:53:33.810Z,7.50
2018-07-20T20:56:01.837Z,8.80
2018-07-20T20:58:29.964Z,8.13
2018-07-20T21:00:58.948Z,6.93
2018-07-20T21:03:27.027Z,8.03
2018-07-20T21:05:55.081Z,17.10
2018-07-20T21:08:23.476Z,10.53
2018-07-20T21:10:51.526Z,7.90
2018-07-20T21:13:19.614Z,8.23
2018-07-20T21:15:47.645Z,7.07
2018-07-20T21:18:15.662Z,6.45
2018-07-20T21:20:43.678Z,7.07
2018-07-20T21:23:11.897Z,5.70
2018-07-20T21:25:39.948Z,6.80
2018-07-20T21:28:07.985Z,6.87
2018-07-20T21:30:36.152Z,6.60
2018-07-20T21:33:04.904Z,8.85
2018-07-20T21:35:33.165Z,6.03
2018-07-20T21:38:01.201Z,5.53
2018-07-20T21:40:29.247Z,6.97
2018-07-20T21:42:57.298Z,5.60
2018-07-20T21:45:25.770Z,6.03
2018-07-20T21:47:53.795Z,6.63
2018-07-20T21:50:21.884Z,7.15
2018-07-20T21:52:49.907Z,6.07
2018-07-20T21:55:18.067Z,6.50
2018-07-20T21:57:46.106Z,7.97
2018-07-20T22:00:15.717Z,6.50
2018-07-20T22:02:43.760Z,6.40
2018-07-20T22:05:11.792Z,5.73
2018-07-20T22:07:39.875Z,5.20
2018-07-20T22:10:08.393Z,6.43
2018-07-20T22:12:36.567Z,5.43
2018-07-20T22:15:05.442Z,6.53
2018-07-20T22:17:33.761Z,7.57
2018-07-20T22:20:01.826Z,7.33
2018-07-20T22:22:29.889Z,6.53
2018-07-20T22:24:57.971Z,5.67
2018-07-20T22:27:26.037Z,6.50
2018-07-20T22:29:54.133Z,6.30
2018-07-20T22:32:22.216Z,6.50
2018-07-20T22:34:50.565Z,5.83
2018-07-20T22:37:18.590Z,6.00
2018-07-20T22:39:46.621Z,6.03
2018-07-20T22:42:14.661Z,6.70
2018-07-20T22:44:42.957Z,6.70
2018-07-20T22:47:11.776Z,6.20
2018-07-20T22:49:39.820Z,7.37
2018-07-20T22:52:08.034Z,10.43
2018-07-20T22:54:36.093Z,8.93
2018-07-20T22:57:04.733Z,7.28
2018-07-20T22:59:32.782Z,7.03
2018-07-20T23:02:00.821Z,7.33
2018-07-20T23:04:28.941Z,7.57
2018-07-20T23:06:56.964Z,7.67
2018-07-20T23:09:25.008Z,6.63
2018-07-20T23:11:53.033Z,7.47
2018-07-20T23:14:21.080Z,7.77
2018-07-20T23:16:49.107Z,9.20
2018-07-20T23:19:17.148Z,8.30
2018-07-20T23:21:45.281Z,7.33
2018-07-20T23:24:13.310Z,6.83
2018-07-20T23:26:41.333Z,7.17
2018-07-20T23:29:09.416Z,5.97
2018-07-20T23:31:37.401Z,5.43
2018-07-20T23:34:05.702Z,8.13
2018-07-20T23:36:33.910Z,5.03
2018-07-20T23:39:01.941Z,4.60
2018-07-20T23:41:30.064Z,5.03
2018-07-20T23:43:58.120Z,5.20
2018-07-20T23:46:26.590Z,5.97
2018-07-20T23:48:54.614Z,5.70
2018-07-20T23:51:22.913Z,5.80
2018-07-20T23:53:50.944Z,5.77
2018-07-20T23:56:18.988Z,5.00
2018-07-20T23:58:47.014Z,4.90
